Wednesday, January 17, 2018, 8:15 AM EST
Back to Local

KDOV, Dover Air Force Base

Location: Dover, DE, United States Lat: 39.133
Local Time: 8:15 AM EST (13:15 GMT) Lon: -75.467
Time Zone: US/Eastern Elev: 29 ft

Show me the last for .
Show Decoded

2018-01-17 08:01 METAR KDOV 171301Z 29011KT 1SM -SN BR OVC008 00/00 A3031 RMK AO2A TWR VIS 1/2
                 OVC V BKN SLP268 $ =
2018-01-17 07:56 METAR KDOV 171256Z 30009KT 1SM -SN BR OVC008 00/00 A3031 RMK AO2A TWR VIS 1/2
                 SLP268 P0005 T00000000 $ =
2018-01-17 07:48 METAR KDOV 171248Z 29010KT 1SM R01/5500V6000FT -SN BR VV008 00/00 A3031 RMK AO2A
                 TWR VIS 1/2 SLP268 $ =
2018-01-17 07:44 METAR KDOV 171244Z 30011KT 7/8SM R01/5500VP6000FT -SN BR VV008 00/00 A3031 RMK
                 AO2A TWR VIS 1/2 SLP268 $ =
2018-01-17 07:38 METAR KDOV 171238Z 30011KT 1 1/8SM -SN BR OVC008 00/00 A3030 RMK AO2A TWR VIS
                 1/2 SLP264 $ =
2018-01-17 07:33 METAR KDOV 171233Z 30009KT 1 1/8SM -SN BR OVC007 00/00 A3030 RMK AO2A TWR VIS
                 1/2 SLP264 $ =
2018-01-17 07:28 METAR KDOV 171228Z 30012KT 1 1/8SM -SN BR OVC008 00/00 A3030 RMK AO2A TWR VIS
                 1/2 SLP264 $ =
2018-01-17 07:23 METAR KDOV 171223Z 30008KT 1SM -SN BR OVC008 00/00 A3030 RMK AO2A TWR VIS 1/2
                 VIS 1 1/8V1 5/8 SLP264 $ =
2018-01-17 07:18 METAR KDOV 171218Z 29008KT 1 1/4SM -SN BR OVC008 00/00 A3031 RMK AO2A TWR VIS
                 1/2 VIS 1 1/4V2 SLP268 $ =
2018-01-17 07:13 METAR KDOV 171213Z 29010KT 1 3/4SM R01/5500FT -SN BR OVC009 00/00 A3031 RMK AO2A
                 TWR VIS 1/2 SLP268 $ =
2018-01-17 07:02 METAR KDOV 171202Z 30010KT 2 1/4SM R01/5000FT -SN BR OVC009 00/00 A3030 RMK AO2A
                 TWR VIS 1/2 SLP264 $ =
2018-01-17 06:56 METAR KDOV 171156Z 30010KT 2 1/4SM R01/5500FT -SN BR OVC009 01/01 A3031 RMK AO2A
                 TWR VIS 1/2 VIS 2 1/4V2 3/4 SNB1040 SLP268 P0000 60000 T00050005 10031 20005
                 53013 $ =
2018-01-17 06:50 METAR KDOV 171150Z 29010KT 2 3/4SM R01/6000FT -SN BR OVC010 01/01 A3031 RMK AO2A
                 TWR VIS 1/2 SNB1040 SLP268 $ =
2018-01-17 06:45 METAR KDOV 171145Z 30009KT 3SM R01/6000FT -SN BR OVC010 01/01 A3031 RMK AO2A
                 SNB1040 CIG 009 RWY19 SLP268 $ =
2018-01-17 06:10 METAR KDOV 171110Z 31010KT 6SM -SN BR OVC009 01/01 A3029 RMK AO2A SNE1040 SLP261
                 $ =
2018-01-17 06:03 METAR KDOV 171103Z 32008KT 6SM -SN BR OVC010 01/01 A3029 RMK AO2A SNB1040 CIG
                 009 RWY19 SLP261 $ =
2018-01-17 05:56 METAR KDOV 171056Z 31008KT 6SM -SN OVC010 01/01 A3029 RMK AO2A UPB48 OVC V BKN
                 CIG 009 RWY19 SLP261 P0000 T00120012 $ =
2018-01-17 05:48 METAR KDOV 171048Z COR AUTO 31010KT 7SM -RA BKN010 OVC017 01/01 A3028 RMK AO2
                 UPB48 CIG 009 RWY19 SLP257 $ COR 1051 =
2018-01-17 05:38 METAR KDOV 171038Z AUTO 31009KT 8SM BKN010 OVC017 01/01 A3028 RMK AO2 CIG
                 010V017 BKN V FEW SLP257 $ =
2018-01-17 05:28 METAR KDOV 171028Z AUTO 31009KT 8SM FEW010 OVC017 01/01 A3028 RMK AO2 CIG 010
                 RWY19 SLP257 $ =
2018-01-17 05:06 METAR KDOV 171006Z AUTO 31010KT 10SM OVC015 02/02 A3027 RMK AO2 CIG 011 RWY19
                 SLP254 $ =
2018-01-17 04:56 METAR KDOV 170956Z AUTO 31010KT 9SM OVC014 02/02 A3027 RMK AO2 UPB02E05DZB05E22
                 CIG 013 RWY19 SLP254 P0000 T00180018 $ =
2018-01-17 04:22 METAR KDOV 170922Z AUTO 30011KT 10SM OVC014 02/02 A3027 RMK AO2 UPB02E05DZB05E22
                 CIG 012 RWY19 SLP254 $ =
2018-01-17 04:02 METAR KDOV 170902Z COR AUTO 31010KT 10SM -RA OVC014 03/03 A3027 RMK AO2 UPB02
                 SLP254 $ COR 0905 =
2018-01-17 03:56 METAR KDOV 170856Z AUTO 29008KT 10SM OVC014 03/03 A3027 RMK AO2 SLP254 T00290029
                 56007 $ =
2018-01-17 02:56 METAR KDOV 170756Z AUTO 31005KT 10SM BKN012 OVC019 03/03 A3027 RMK AO2 SLP254
                 T00300030 $ =
2018-01-17 02:46 METAR KDOV 170746Z AUTO 32004KT 10SM BKN012 OVC019 03/03 A3027 RMK AO2 SLP254 $
                 =
2018-01-17 02:41 METAR KDOV 170741Z AUTO 32006KT 10SM OVC011 03/03 A3026 RMK AO2 SLP250 $ =
2018-01-17 01:56 METAR KDOV 170656Z AUTO 33003KT 10SM OVC010 03/03 A3027 RMK AO2 SLP254 T00280028
                 $ =
2018-01-17 01:25 METAR KDOV 170625Z AUTO 30006KT 10SM OVC010 03/03 A3028 RMK AO2 SLP257 $ =
2018-01-17 01:01 METAR KDOV 170601Z AUTO 31006KT 10SM OVC011 03/03 A3028 RMK AO2 SLP257 $ =
2018-01-17 00:56 METAR KDOV 170556Z AUTO 31007KT 10SM OVC010 03/03 A3029 RMK AO2 SLP261 T00280028
                 10030 20009 57015 $ =
2018-01-17 00:36 METAR KDOV 170536Z AUTO 30005KT 10SM OVC010 03/03 A3030 RMK AO2 CIG 008V010 CIG
                 009 RWY19 SLP264 $ =
2018-01-16 23:56 METAR KDOV 170456Z AUTO 31004KT 10SM OVC008 03/03 A3030 RMK AO2 SLP264 T00280028
                 400691033 $ =
2018-01-16 22:56 METAR KDOV 170356Z AUTO 34003KT 10SM OVC009 02/02 A3031 RMK AO2 SLP267 T00240024
                 $ =
2018-01-16 22:52 METAR KDOV 170352Z AUTO 34003KT 10SM OVC009 02/02 A3031 RMK AO2 SLP267 $ =
2018-01-16 22:32 METAR KDOV 170332Z AUTO 33003KT 10SM OVC010 02/02 A3032 RMK AO2 SLP271 $ =
2018-01-16 22:21 METAR KDOV 170321Z AUTO 32003KT 10SM BKN011 BKN020 OVC028 02/02 A3032 RMK AO2
                 CIG 011V020 SLP271 $ =
2018-01-16 22:01 METAR KDOV 170301Z AUTO 32004KT 10SM SCT020 BKN028 BKN045 02/02 A3033 RMK AO2
                 CIG 027V044 BKN028 V SCT CIG 020 RWY19 SLP274 $ =
2018-01-16 21:56 METAR KDOV 170256Z AUTO 32003KT 10SM SCT020 SCT028 BKN043 02/02 A3033 RMK AO2
                 SLP274 T00190019 57010 $ =
2018-01-16 21:31 METAR KDOV 170231Z AUTO 09004KT 10SM SCT021 BKN039 02/02 A3032 RMK AO2 SLP271 $
                 =
2018-01-16 21:16 METAR KDOV 170216Z AUTO 00000KT 10SM BKN020 OVC024 02/02 A3033 RMK AO2 SLP274 $
                 =
2018-01-16 21:06 METAR KDOV 170206Z AUTO 00000KT 10SM OVC019 02/02 A3034 RMK AO2 SLP278 $ =
2018-01-16 20:56 METAR KDOV 170156Z AUTO 01003KT 10SM OVC020 02/02 A3034 RMK AO2 SLP278 T00220022
                 $ =
2018-01-16 19:56 METAR KDOV 170056Z AUTO 35003KT 10SM BKN021 OVC030 02/02 A3035 RMK AO2 SLP281
                 T00150015 $ =
2018-01-16 19:27 METAR KDOV 170027Z 04003KT 10SM BKN021 01/01 A3035 RMK BKN V SCT SLP281 $ =
2018-01-16 19:06 METAR KDOV 170006Z AUTO 01004KT 10SM SCT021 01/01 A3036 RMK AO2 SLP284 $ =
2018-01-16 18:56 METAR KDOV 162356Z AUTO 02003KT 10SM BKN021 01/01 A3036 RMK AO2 SLP284 T00110011
                 10069 20010 55001 $ =
2018-01-16 18:21 METAR KDOV 162321Z AUTO 33003KT 10SM BKN021 01/01 A3037 RMK AO2 BKN V SCT SLP288
                 $ =
2018-01-16 17:56 METAR KDOV 162256Z AUTO 00000KT 10SM SCT020 03/03 A3036 RMK AO2 SLP284 T00250025
                 $ =
2018-01-16 16:56 METAR KDOV 162156Z COR AUTO 00000KT 10SM FEW050 BKN200 03/03 A3036 RMK AO2
                 SLP284 T00320031 $ COR 2208 =
2018-01-16 15:56 METAR KDOV 162056Z 13005KT 10SM FEW050 BKN200 05/04 A3036 RMK AO2A SLP284
                 T00480036 57017 $ =
2018-01-16 14:56 METAR KDOV 161956Z 11008KT 10SM FEW050 BKN200 06/04 A3037 RMK AO2A SLP288
                 T00620040 $ =
2018-01-16 13:56 METAR KDOV 161856Z 12009KT 10SM FEW050 SCT200 07/04 A3039 RMK AO2A SLP294
                 T00670042 $ =
2018-01-16 12:56 METAR KDOV 161756Z 12009KT 10SM SCT200 06/04 A3041 RMK AO2A SLP301 T00630040
                 10064 21033 57024 $ =
2018-01-16 11:56 METAR KDOV 161656Z 15006KT 10SM SCT200 05/03 A3044 RMK AO2A SLP311 T00490032 $ =
2018-01-16 10:56 METAR KDOV 161556Z 08006KT 10SM FEW030 SCT250 04/03 A3047 RMK AO2A SLP322
                 CONTRAILS T00370027 $ =
2018-01-16 09:56 METAR KDOV 161456Z 10004KT 10SM FEW027 FEW080 SCT250 02/00 A3049 RMK AO2A SLP328
                 CONTRAILS T00200000 50003 $ =
2018-01-16 09:06 METAR KDOV 161406Z 01003KT 10SM SCT027 00/00 A3049 RMK AO2A SLP328 $ =
2018-01-16 08:56 METAR KDOV 161356Z 01003KT 10SM BKN027 00/00 A3049 RMK AO2A SLP328 T10021002 $ =
2018-01-16 08:51 METAR KDOV 161351Z 36003KT 10SM BKN027 M01/M01 A3049 RMK AO2A SLP328 $ =
2018-01-16 08:16 METAR KDOV 161316Z 34003KT 10SM SCT027 SCT180 M02/M02 A3049 RMK AO2A SLP328 $ =

Support USWX by starting your Amazon purchase here.